Time;durP1;ratioP1;P1;durP2;ratioP2;P2;SDS_P1;SDS_P2;PMS_P1;PMS_P2;Temp;Humidity;BMP_temperature;BMP_pressure;BME280_temperature;BME280_humidity;BME280_pressure;Samples;Min_cycle;Max_cycle;Signal;HPM_P1;HPM_P2
2022/10/03 00:01:27;;;;;;;6.00;1.90;;;;;;;;;;4971369;28;20053;-80
2022/10/03 00:03:59;;;;;;;8.73;2.63;;;;;;;;;;4953604;28;20054;-80
2022/10/03 00:06:25;;;;;;;12.57;2.70;;;;;;;;;;4952509;28;20386;-79
2022/10/03 00:09:26;;;;;;;10.18;2.60;;;;;;;;;;4958890;28;20050;-80
2022/10/03 00:12:01;;;;;;;8.30;2.35;;;;;;;;;;5046460;28;20048;-79
2022/10/03 00:14:47;;;;;;;10.07;2.58;;;;;;;;;;5030840;28;20508;-79
2022/10/03 00:17:16;;;;;;;13.45;2.75;;;;;;;;;;5017275;28;20111;-79
2022/10/03 00:20:11;;;;;;;9.32;2.55;;;;;;;;;;5036856;28;20048;-79
2022/10/03 00:22:37;;;;;;;9.82;2.42;;;;;;;;;;5033980;28;20095;-79
2022/10/03 00:25:07;;;;;;;15.15;3.28;;;;;;;;;;5050327;28;20045;-79
2022/10/03 00:27:41;;;;;;;10.88;2.42;;;;;;;;;;5050431;28;20127;-79
2022/10/03 00:30:11;;;;;;;10.63;2.60;;;;;;;;;;5017378;28;20088;-79
2022/10/03 00:33:01;;;;;;;13.90;3.67;;;;;;;;;;5050347;28;20420;-79
2022/10/03 00:35:38;;;;;;;7.40;2.38;;;;;;;;;;5033677;28;20488;-79
2022/10/03 00:38:04;;;;;;;8.27;2.15;;;;;;;;;;5050489;28;20059;-79
2022/10/03 00:40:39;;;;;;;18.38;3.95;;;;;;;;;;5033961;28;20057;-79
2022/10/03 00:43:23;;;;;;;12.55;3.40;;;;;;;;;;5050039;28;20122;-79
2022/10/03 00:46:08;;;;;;;12.73;3.53;;;;;;;;;;5008537;28;20167;-79
2022/10/03 00:48:40;;;;;;;10.95;4.00;;;;;;;;;;4950692;28;20047;-79
2022/10/03 00:51:09;;;;;;;9.43;2.78;;;;;;;;;;4954243;28;20058;-79
2022/10/03 00:53:36;;;;;;;9.13;2.60;;;;;;;;;;4967883;28;20115;-79
2022/10/03 00:56:02;;;;;;;8.80;2.90;;;;;;;;;;4953616;28;20059;-79
2022/10/03 00:58:47;;;;;;;9.70;2.85;;;;;;;;;;4954692;28;20070;-79
2022/10/03 01:01:39;;;;;;;10.45;2.55;;;;;;;;;;4965086;28;20043;-79
2022/10/03 01:04:13;;;;;;;11.45;2.38;;;;;;;;;;4976951;28;20134;-79
2022/10/03 01:06:45;;;;;;;9.65;2.65;;;;;;;;;;4969373;28;20047;-79
2022/10/03 01:09:14;;;;;;;12.43;2.33;;;;;;;;;;4973804;28;20043;-79
2022/10/03 01:11:40;;;;;;;9.60;2.20;;;;;;;;;;4973699;28;20521;-79
2022/10/03 01:14:16;;;;;;;8.27;2.55;;;;;;;;;;4973431;28;20041;-79
2022/10/03 01:17:02;;;;;;;11.27;3.15;;;;;;;;;;4954439;28;20087;-79
2022/10/03 01:19:47;;;;;;;9.75;2.90;;;;;;;;;;4954831;28;20070;-79
2022/10/03 01:22:19;;;;;;;10.18;2.75;;;;;;;;;;4954392;28;20105;-79
2022/10/03 01:24:51;;;;;;;9.85;2.40;;;;;;;;;;4964261;28;20040;-79
2022/10/03 01:27:23;;;;;;;11.20;3.25;;;;;;;;;;4961280;28;20564;-80
2022/10/03 01:32:43;;;;;;;8.88;2.40;;;;;;;;;;4954759;29;20047;-79
2022/10/03 01:35:28;;;;;;;7.35;2.65;;;;;;;;;;4956894;28;20043;-79
2022/10/03 01:38:18;;;;;;;7.75;2.80;;;;;;;;;;4954088;28;20050;-79
2022/10/03 01:40:50;;;;;;;16.38;3.72;;;;;;;;;;4954181;28;20097;-79
2022/10/03 01:43:22;;;;;;;12.15;2.90;;;;;;;;;;4966215;28;20078;-79
2022/10/03 01:45:54;;;;;;;13.93;2.90;;;;;;;;;;4959880;28;20118;-79
2022/10/03 01:48:22;;;;;;;7.90;3.00;;;;;;;;;;4968025;28;20047;-79
2022/10/03 01:51:03;;;;;;;7.60;1.98;;;;;;;;;;4955299;28;20074;-79
2022/10/03 01:53:35;;;;;;;8.07;2.50;;;;;;;;;;4954574;28;20089;-79
2022/10/03 01:56:12;;;;;;;7.40;2.47;;;;;;;;;;4953901;28;20058;-79
2022/10/03 01:58:44;;;;;;;10.85;3.17;;;;;;;;;;4954952;28;20050;-79
2022/10/03 02:01:31;;;;;;;8.73;2.50;;;;;;;;;;4956171;28;20056;-79
2022/10/03 02:03:57;;;;;;;;;;;;;;;;;;4954296;28;20096;-79
2022/10/03 02:06:28;;;;;;;6.53;2.55;;;;;;;;;;5050088;28;19926;-79
2022/10/03 02:09:21;;;;;;;9.10;2.22;;;;;;;;;;4954725;28;20070;-79
2022/10/03 02:11:50;;;;;;;8.52;2.08;;;;;;;;;;5009861;28;20417;-79
2022/10/03 02:14:22;;;;;;;9.15;2.70;;;;;;;;;;4960064;28;20406;-79
2022/10/03 02:17:07;;;;;;;7.95;2.10;;;;;;;;;;4968209;28;20051;-79
2022/10/03 02:19:42;;;;;;;10.77;2.20;;;;;;;;;;4952631;28;20056;-79
2022/10/03 02:22:28;;;;;;;8.13;2.35;;;;;;;;;;4952357;28;20039;-79
2022/10/03 02:25:04;;;;;;;10.98;2.45;;;;;;;;;;4949515;28;20051;-79
2022/10/03 02:27:36;;;;;;;9.43;2.30;;;;;;;;;;4956889;28;20081;-79
2022/10/03 02:30:08;;;;;;;7.13;2.45;;;;;;;;;;4970922;28;20051;-79
2022/10/03 02:32:53;;;;;;;9.75;2.97;;;;;;;;;;4961149;28;20043;-79
2022/10/03 02:35:38;;;;;;;6.53;2.05;;;;;;;;;;4963726;28;20050;-79
2022/10/03 02:38:19;;;;;;;9.45;3.05;;;;;;;;;;4955853;28;20398;-79
2022/10/03 02:40:47;;;;;;;7.70;2.30;;;;;;;;;;4963392;28;20039;-79
2022/10/03 02:43:25;;;;;;;7.95;2.60;;;;;;;;;;4958747;28;20129;-79
2022/10/03 02:45:51;;;;;;;11.57;2.17;;;;;;;;;;4935986;29;20054;-79
2022/10/03 02:48:44;;;;;;;9.73;3.00;;;;;;;;;;4970074;28;20057;-79
2022/10/03 02:51:28;;;;;;;7.53;2.15;;;;;;;;;;4957436;28;20047;-79
2022/10/03 02:54:14;;;;;;;10.82;2.83;;;;;;;;;;4957891;28;20116;-79
2022/10/03 02:56:43;;;;;;;6.80;2.50;;;;;;;;;;4964409;28;20138;-79
2022/10/03 02:59:09;;;;;;;12.13;2.63;;;;;;;;;;4956893;28;20055;-79
2022/10/03 03:01:51;;;;;;;8.85;2.70;;;;;;;;;;4954420;28;20062;-79
2022/10/03 03:04:20;;;;;;;8.80;2.47;;;;;;;;;;4952862;28;20383;-79
2022/10/03 03:07:04;;;;;;;7.63;2.05;;;;;;;;;;4968703;28;20566;-79
2022/10/03 03:09:43;;;;;;;9.55;2.30;;;;;;;;;;4958060;28;20046;-79
2022/10/03 03:12:28;;;;;;;9.05;2.30;;;;;;;;;;4967503;28;20125;-79
2022/10/03 03:15:13;;;;;;;4.80;1.83;;;;;;;;;;4956451;28;20043;-79
2022/10/03 03:17:45;;;;;;;6.03;2.05;;;;;;;;;;4956553;28;20579;-79
2022/10/03 03:20:27;;;;;;;7.57;2.60;;;;;;;;;;4959246;28;20058;-79
2022/10/03 03:22:59;;;;;;;7.72;2.13;;;;;;;;;;4958139;28;20046;-79
2022/10/03 03:25:44;;;;;;;7.80;2.03;;;;;;;;;;4952176;28;20044;-79
2022/10/03 03:28:36;;;;;;;9.25;2.05;;;;;;;;;;4955583;28;20405;-79
2022/10/03 03:31:13;;;;;;;6.60;2.38;;;;;;;;;;4965552;28;20098;-79
2022/10/03 03:33:53;;;;;;;9.98;2.35;;;;;;;;;;4967818;28;20552;-79
2022/10/03 03:36:26;;;;;;;7.13;1.90;;;;;;;;;;4957378;28;20070;-79
2022/10/03 03:38:52;;;;;;;12.90;2.72;;;;;;;;;;4958580;28;20517;-79
2022/10/03 03:41:18;;;;;;;9.88;2.00;;;;;;;;;;4962719;28;20542;-79
2022/10/03 03:43:58;;;;;;;7.25;1.90;;;;;;;;;;4971687;28;20043;-79
2022/10/03 03:46:25;;;;;;;9.93;2.08;;;;;;;;;;4958166;28;20534;-79
2022/10/03 03:49:00;;;;;;;8.57;2.25;;;;;;;;;;4959776;28;20131;-79
2022/10/03 03:51:45;;;;;;;10.97;2.83;;;;;;;;;;4967059;28;20126;-79
2022/10/03 03:54:18;;;;;;;9.45;2.60;;;;;;;;;;4960605;28;20044;-79
2022/10/03 03:56:50;;;;;;;9.10;2.20;;;;;;;;;;4961322;28;20089;-79
2022/10/03 03:59:26;;;;;;;6.13;2.30;;;;;;;;;;4971317;28;20490;-79
2022/10/03 04:01:58;;;;;;;9.43;2.20;;;;;;;;;;4961055;28;20405;-79
2022/10/03 04:04:30;;;;;;;9.10;2.40;;;;;;;;;;4954036;28;20043;-79
2022/10/03 04:07:18;;;;;;;9.30;2.10;;;;;;;;;;4951773;28;20546;-79
2022/10/03 04:09:59;;;;;;;10.82;2.53;;;;;;;;;;4952109;28;20177;-79
2022/10/03 04:12:44;;;;;;;8.40;2.30;;;;;;;;;;4952088;28;20048;-79
2022/10/03 04:15:29;;;;;;;7.80;2.33;;;;;;;;;;4952086;28;20074;-79
2022/10/03 04:21:12;;;;;;;8.40;2.30;;;;;;;;;;4964349;28;20053;-79
2022/10/03 04:23:38;;;;;;;4.75;2.10;;;;;;;;;;4960278;28;20443;-79
2022/10/03 04:26:11;;;;;;;8.93;2.20;;;;;;;;;;4957858;28;20160;-79
2022/10/03 04:28:55;;;;;;;12.13;2.70;;;;;;;;;;4954744;28;20405;-79
2022/10/03 04:31:40;;;;;;;8.38;2.55;;;;;;;;;;4955212;29;20042;-79
2022/10/03 04:34:06;;;;;;;6.18;2.40;;;;;;;;;;4955218;28;20177;-79
2022/10/03 04:36:46;;;;;;;12.32;2.85;;;;;;;;;;4955147;29;20134;-79
2022/10/03 04:39:29;;;;;;;8.70;2.15;;;;;;;;;;4955128;28;20490;-79
2022/10/03 04:42:20;;;;;;;6.07;2.38;;;;;;;;;;4965772;28;20054;-79
2022/10/03 04:44:52;;;;;;;10.32;3.05;;;;;;;;;;4969627;28;20066;-79
2022/10/03 04:47:37;;;;;;;6.85;2.30;;;;;;;;;;4965868;28;20050;-79
2022/10/03 04:50:09;;;;;;;7.47;2.67;;;;;;;;;;4964936;28;20051;-79
2022/10/03 04:52:41;;;;;;;8.40;2.42;;;;;;;;;;4978013;28;20046;-79
2022/10/03 04:55:23;;;;;;;9.35;2.25;;;;;;;;;;4962617;28;20039;-79
2022/10/03 04:58:04;;;;;;;8.50;2.00;;;;;;;;;;4958340;28;20543;-79
2022/10/03 05:00:47;;;;;;;8.68;2.70;;;;;;;;;;4957046;28;20043;-79
2022/10/03 05:03:19;;;;;;;8.15;2.85;;;;;;;;;;4957055;28;20563;-79
2022/10/03 05:05:46;;;;;;;8.73;2.50;;;;;;;;;;4954810;28;20048;-79
2022/10/03 05:08:16;;;;;;;3.97;2.10;;;;;;;;;;4937413;28;20055;-79
2022/10/03 05:10:48;;;;;;;8.23;2.72;;;;;;;;;;4954741;28;20106;-79
2022/10/03 05:13:17;;;;;;;10.77;2.30;;;;;;;;;;4970018;28;20054;-79
2022/10/03 05:15:46;;;;;;;7.82;2.95;;;;;;;;;;4954811;28;20123;-79
2022/10/03 05:18:28;;;;;;;6.88;2.72;;;;;;;;;;4954423;28;20422;-79
2022/10/03 05:20:58;;;;;;;10.32;2.53;;;;;;;;;;4958994;28;20112;-82
2022/10/03 05:23:43;;;;;;;9.98;2.88;;;;;;;;;;4957782;29;20089;-77
2022/10/03 05:26:29;;;;;;;8.68;2.60;;;;;;;;;;4954596;28;20058;-78
2022/10/03 05:29:01;;;;;;;9.80;2.72;;;;;;;;;;4962395;28;20074;-78
2022/10/03 05:31:46;;;;;;;11.10;2.42;;;;;;;;;;4965051;28;20549;-78
2022/10/03 05:34:31;;;;;;;13.90;3.08;;;;;;;;;;4965024;28;20101;-78
2022/10/03 05:37:15;;;;;;;9.53;2.97;;;;;;;;;;4959456;28;20047;-78
2022/10/03 05:40:00;;;;;;;9.52;3.03;;;;;;;;;;4968923;28;20559;-78
2022/10/03 05:42:35;;;;;;;7.07;2.60;;;;;;;;;;4963371;28;20096;-78
2022/10/03 05:45:22;;;;;;;8.23;3.00;;;;;;;;;;4956568;28;20043;-78
2022/10/03 05:48:05;;;;;;;12.30;2.90;;;;;;;;;;4958807;28;20461;-78
2022/10/03 05:50:31;;;;;;;11.43;3.30;;;;;;;;;;4959961;28;20075;-78
2022/10/03 05:53:07;;;;;;;11.10;2.95;;;;;;;;;;4962081;28;20085;-78
2022/10/03 05:55:33;;;;;;;6.18;2.70;;;;;;;;;;4961063;28;20039;-78
2022/10/03 05:58:06;;;;;;;12.38;2.80;;;;;;;;;;4958269;28;20055;-77
2022/10/03 06:00:33;;;;;;;13.02;3.38;;;;;;;;;;4961405;28;20144;-84
2022/10/03 06:03:15;;;;;;;15.45;2.92;;;;;;;;;;4964151;28;20090;-77
2022/10/03 06:06:00;;;;;;;10.38;2.85;;;;;;;;;;4970941;28;20043;-77
2022/10/03 06:08:43;;;;;;;9.13;2.30;;;;;;;;;;4963248;28;20043;-78
2022/10/03 06:11:28;;;;;;;8.50;2.70;;;;;;;;;;4961128;28;20082;-78
2022/10/03 06:14:18;;;;;;;11.82;2.67;;;;;;;;;;4959872;28;20490;-78
2022/10/03 06:16:57;;;;;;;7.95;3.00;;;;;;;;;;4961082;28;20043;-78
2022/10/03 06:19:41;;;;;;;14.43;4.60;;;;;;;;;;4962348;29;20094;-78
2022/10/03 06:22:07;;;;;;;11.27;4.82;;;;;;;;;;4961999;28;20079;-78
2022/10/03 06:24:56;;;;;;;10.90;4.40;;;;;;;;;;4960758;28;20047;-78
2022/10/03 06:27:24;;;;;;;9.38;3.78;;;;;;;;;;5042967;28;20045;-78
2022/10/03 06:29:51;;;;;;;11.90;3.22;;;;;;;;;;5026045;28;20140;-81
2022/10/03 06:32:24;;;;;;;9.93;3.38;;;;;;;;;;5047140;28;20053;-77
2022/10/03 06:35:03;;;;;;;11.30;4.25;;;;;;;;;;5061291;28;20074;-77
2022/10/03 06:37:47;;;;;;;12.80;5.72;;;;;;;;;;5050761;28;20053;-77
2022/10/03 06:40:19;;;;;;;12.95;5.07;;;;;;;;;;5049647;28;20042;-77
2022/10/03 06:42:45;;;;;;;13.77;4.75;;;;;;;;;;5049042;28;20042;-77
2022/10/03 06:45:24;;;;;;;16.80;4.93;;;;;;;;;;5029597;28;20056;-77
2022/10/03 06:47:50;;;;;;;8.55;5.28;;;;;;;;;;5042365;28;20088;-77
2022/10/03 06:50:34;;;;;;;13.70;5.50;;;;;;;;;;5046279;28;20041;-77
2022/10/03 06:53:27;;;;;;;17.45;5.13;;;;;;;;;;5060937;28;20100;-77
2022/10/03 06:56:02;;;;;;;13.32;4.35;;;;;;;;;;5043811;28;20057;-77
2022/10/03 06:58:44;;;;;;;8.65;3.10;;;;;;;;;;5061969;28;20080;-77
2022/10/03 07:01:23;;;;;;;7.70;2.63;;;;;;;;;;5065264;28;20079;-78
2022/10/03 07:04:01;;;;;;;13.75;3.92;;;;;;;;;;5023946;28;20114;-77
2022/10/03 07:06:36;;;;;;;12.05;2.78;;;;;;;;;;4966296;28;20036;-77
2022/10/03 07:09:10;;;;;;;10.80;3.22;;;;;;;;;;4966099;28;20048;-76
2022/10/03 07:11:55;;;;;;;8.52;2.53;;;;;;;;;;4968360;28;20039;-77
2022/10/03 07:14:35;;;;;;;9.63;2.65;;;;;;;;;;4963254;28;20126;-79
2022/10/03 07:17:08;;;;;;;11.73;3.20;;;;;;;;;;4960297;28;20099;-80
2022/10/03 07:19:54;;;;;;;9.27;3.13;;;;;;;;;;4957691;28;20073;-79
2022/10/03 07:22:32;;;;;;;9.07;2.95;;;;;;;;;;4960241;28;20092;-79
2022/10/03 07:25:01;;;;;;;7.05;2.50;;;;;;;;;;4963356;28;20048;-77
2022/10/03 07:27:45;;;;;;;10.27;2.42;;;;;;;;;;4967844;28;20047;-77
2022/10/03 07:30:17;;;;;;;10.30;2.85;;;;;;;;;;4982422;28;20042;-78
2022/10/03 07:32:49;;;;;;;7.38;2.38;;;;;;;;;;4988083;28;20134;-78
2022/10/03 07:35:15;;;;;;;9.05;3.13;;;;;;;;;;4980839;28;20047;-83
2022/10/03 07:40:56;;;;;;;9.20;2.90;;;;;;;;;;4977772;28;20108;-79
2022/10/03 07:43:25;;;;;;;9.70;2.83;;;;;;;;;;4962410;28;20122;-78
2022/10/03 07:46:06;;;;;;;5.03;2.20;;;;;;;;;;4959996;28;20043;-78
2022/10/03 07:48:32;;;;;;;7.15;2.28;;;;;;;;;;4960166;28;20047;-79
2022/10/03 07:51:28;;;;;;;9.13;3.28;;;;;;;;;;4960410;28;20043;-80
2022/10/03 07:54:18;;;;;;;7.90;2.15;;;;;;;;;;4977896;28;20057;-78
2022/10/03 07:56:56;;;;;;;9.77;2.70;;;;;;;;;;4954540;28;20047;-78
2022/10/03 07:59:31;;;;;;;8.18;2.85;;;;;;;;;;4966231;28;20486;-77
2022/10/03 08:02:14;;;;;;;8.48;2.08;;;;;;;;;;4963882;28;20081;-77
2022/10/03 08:05:07;;;;;;;10.82;2.25;;;;;;;;;;4956896;29;20138;-76
2022/10/03 08:07:35;;;;;;;11.43;3.63;;;;;;;;;;4957289;28;20087;-76
2022/10/03 08:10:09;;;;;;;8.23;2.47;;;;;;;;;;4957510;28;20045;-76
2022/10/03 08:12:40;;;;;;;9.35;2.55;;;;;;;;;;4961644;28;20070;-77
2022/10/03 08:15:12;;;;;;;10.57;3.35;;;;;;;;;;4964703;28;20051;-77
2022/10/03 08:17:57;;;;;;;10.32;2.60;;;;;;;;;;4963369;28;20502;-77
2022/10/03 08:20:34;;;;;;;10.43;2.85;;;;;;;;;;4962386;28;20049;-77
2022/10/03 08:23:03;;;;;;;7.03;2.10;;;;;;;;;;4958605;28;20054;-77
2022/10/03 08:25:39;;;;;;;11.68;2.65;;;;;;;;;;4956027;28;20054;-77
2022/10/03 08:28:17;;;;;;;7.82;2.20;;;;;;;;;;4956155;28;20047;-76
2022/10/03 08:30:47;;;;;;;9.90;2.28;;;;;;;;;;4956889;28;20087;-77
2022/10/03 08:33:31;;;;;;;6.50;2.33;;;;;;;;;;4955933;28;20047;-77
2022/10/03 08:36:06;;;;;;;6.53;2.55;;;;;;;;;;4955751;28;20040;-77
2022/10/03 08:38:32;;;;;;;5.50;1.80;;;;;;;;;;4954617;28;20047;-77
2022/10/03 08:41:14;;;;;;;10.25;2.25;;;;;;;;;;4957146;28;20100;-81
2022/10/03 08:43:59;;;;;;;7.13;2.10;;;;;;;;;;4959281;29;20093;-81
2022/10/03 08:46:49;;;;;;;9.27;2.00;;;;;;;;;;4976323;28;20437;-76
2022/10/03 08:49:22;;;;;;;17.95;2.55;;;;;;;;;;4968833;28;20039;-76
2022/10/03 08:51:58;;;;;;;7.95;1.95;;;;;;;;;;4963915;28;20039;-77
2022/10/03 08:54:27;;;;;;;7.30;2.30;;;;;;;;;;4960651;28;20122;-76
2022/10/03 08:56:56;;;;;;;8.43;2.10;;;;;;;;;;4954979;28;20486;-77
2022/10/03 08:59:25;;;;;;;9.25;2.00;;;;;;;;;;4955096;28;20066;-77
2022/10/03 09:01:52;;;;;;;6.90;2.40;;;;;;;;;;4954991;29;20043;-77
2022/10/03 09:04:36;;;;;;;5.20;1.70;;;;;;;;;;4955819;28;20047;-77
2022/10/03 09:07:21;;;;;;;6.43;2.67;;;;;;;;;;4957554;28;20047;-77
2022/10/03 09:09:50;;;;;;;7.78;2.35;;;;;;;;;;4954204;28;20039;-77
2022/10/03 09:12:31;;;;;;;10.23;1.90;;;;;;;;;;4972086;28;20042;-76
2022/10/03 09:14:57;;;;;;;7.10;1.90;;;;;;;;;;4959429;28;20105;-77
2022/10/03 09:17:35;;;;;;;8.73;1.88;;;;;;;;;;4961226;28;20508;-76
2022/10/03 09:20:20;;;;;;;5.95;1.90;;;;;;;;;;4965619;28;20089;-78
2022/10/03 09:23:01;;;;;;;7.10;1.73;;;;;;;;;;4971564;28;20100;-80
2022/10/03 09:25:46;;;;;;;5.57;1.60;;;;;;;;;;4976942;28;20134;-77
2022/10/03 09:28:15;;;;;;;6.97;2.00;;;;;;;;;;4977813;28;20101;-77
2022/10/03 09:31:02;;;;;;;5.13;1.75;;;;;;;;;;4961049;28;20391;-77
2022/10/03 09:33:40;;;;;;;4.35;1.70;;;;;;;;;;4954247;28;20397;-76
2022/10/03 09:36:22;;;;;;;3.78;1.58;;;;;;;;;;4954783;28;20043;-77
2022/10/03 09:39:11;;;;;;;4.28;1.70;;;;;;;;;;4954737;28;20061;-76
2022/10/03 09:41:43;;;;;;;6.70;1.98;;;;;;;;;;4984887;28;20051;-77
2022/10/03 09:44:28;;;;;;;8.13;2.10;;;;;;;;;;4973617;28;20136;-77
2022/10/03 09:47:22;;;;;;;5.97;2.13;;;;;;;;;;4973014;28;20057;-77
2022/10/03 09:50:06;;;;;;;7.30;1.90;;;;;;;;;;4969223;28;20058;-77
2022/10/03 09:52:36;;;;;;;4.88;1.85;;;;;;;;;;4954556;28;20596;-77
2022/10/03 09:55:05;;;;;;;5.55;1.90;;;;;;;;;;4954645;28;20050;-77
2022/10/03 09:57:31;;;;;;;6.90;1.58;;;;;;;;;;4954536;28;20051;-77
2022/10/03 10:00:18;;;;;;;5.43;1.92;;;;;;;;;;4967541;28;20050;-76
2022/10/03 10:02:50;;;;;;;5.32;1.95;;;;;;;;;;4978621;28;20047;-79
2022/10/03 10:05:19;;;;;;;5.93;2.28;;;;;;;;;;4975203;28;20053;-78
2022/10/03 10:08:18;;;;;;;3.85;1.60;;;;;;;;;;4973076;28;20051;-78
2022/10/03 10:10:44;;;;;;;5.82;1.90;;;;;;;;;;5001163;28;20144;-78
2022/10/03 10:13:17;;;;;;;5.20;2.00;;;;;;;;;;4953845;28;20176;-78
2022/10/03 10:16:08;;;;;;;6.40;1.80;;;;;;;;;;4953994;28;20055;-78
2022/10/03 10:18:53;;;;;;;5.40;2.15;;;;;;;;;;4954344;28;20062;-77
2022/10/03 10:21:42;;;;;;;7.68;1.73;;;;;;;;;;4956586;28;20130;-78
2022/10/03 10:24:31;;;;;;;5.38;1.60;;;;;;;;;;4963419;28;20066;-79
2022/10/03 10:27:16;;;;;;;4.95;1.77;;;;;;;;;;5052197;28;20558;-77
2022/10/03 10:29:49;;;;;;;3.67;1.58;;;;;;;;;;5052099;28;20496;-78
2022/10/03 10:32:15;;;;;;;5.20;1.92;;;;;;;;;;5051852;28;20067;-78
2022/10/03 10:35:00;;;;;;;4.03;1.70;;;;;;;;;;5051024;28;20048;-78
2022/10/03 10:37:47;;;;;;;3.35;1.35;;;;;;;;;;5052020;28;20075;-78
2022/10/03 10:40:16;;;;;;;5.28;1.60;;;;;;;;;;5035616;28;20566;-78
2022/10/03 10:42:54;;;;;;;4.85;1.70;;;;;;;;;;5035367;28;20041;-78
2022/10/03 10:45:45;;;;;;;5.63;1.75;;;;;;;;;;5052319;28;20060;-78
2022/10/03 10:48:30;;;;;;;4.68;1.30;;;;;;;;;;5061517;28;20044;-77
2022/10/03 10:51:00;;;;;;;9.98;1.60;;;;;;;;;;5035321;28;20134;-76
2022/10/03 10:53:44;;;;;;;5.82;2.05;;;;;;;;;;5049225;28;20075;-76
2022/10/03 10:56:31;;;;;;;3.17;1.67;;;;;;;;;;5055715;28;20071;-76
2022/10/03 10:59:15;;;;;;;6.38;2.20;;;;;;;;;;5041284;28;20061;-77
2022/10/03 11:02:00;;;;;;;7.35;1.85;;;;;;;;;;5061378;28;20101;-76
2022/10/03 11:04:32;;;;;;;7.05;2.00;;;;;;;;;;4993306;28;20138;-76
2022/10/03 11:07:14;;;;;;;4.60;1.70;;;;;;;;;;4958896;28;20130;-77
2022/10/03 11:09:57;;;;;;;5.80;1.80;;;;;;;;;;4942185;28;20051;-76
2022/10/03 11:12:36;;;;;;;4.93;1.85;;;;;;;;;;4974492;28;20050;-78
2022/10/03 11:15:35;;;;;;;6.05;1.90;;;;;;;;;;4982700;28;20054;-78
2022/10/03 11:18:07;;;;;;;5.30;2.03;;;;;;;;;;4982987;28;20062;-77
2022/10/03 11:20:52;;;;;;;5.07;1.45;;;;;;;;;;4974989;28;20055;-77
2022/10/03 11:23:18;;;;;;;5.82;1.60;;;;;;;;;;4977506;28;20047;-77
2022/10/03 11:26:02;;;;;;;4.65;1.65;;;;;;;;;;4985318;28;20042;-77
2022/10/03 11:28:43;;;;;;;3.20;1.67;;;;;;;;;;4984978;28;20043;-77
2022/10/03 11:31:28;;;;;;;4.25;1.75;;;;;;;;;;4984521;28;20397;-78
2022/10/03 11:33:54;;;;;;;9.35;1.92;;;;;;;;;;4979993;28;20444;-77
2022/10/03 11:36:41;;;;;;;5.13;1.70;;;;;;;;;;4966053;28;20043;-78
2022/10/03 11:39:13;;;;;;;5.10;2.00;;;;;;;;;;4966378;28;20149;-77
2022/10/03 11:41:45;;;;;;;5.97;2.25;;;;;;;;;;4967755;28;20086;-77
2022/10/03 11:44:20;;;;;;;4.70;1.85;;;;;;;;;;5055835;28;20058;-77
2022/10/03 11:46:59;;;;;;;4.65;1.98;;;;;;;;;;4989317;28;20350;-77
2022/10/03 11:49:40;;;;;;;3.92;1.60;;;;;;;;;;4984885;28;20043;-77
2022/10/03 11:52:09;;;;;;;3.47;1.90;;;;;;;;;;4984090;28;20046;-77
2022/10/03 11:54:37;;;;;;;5.53;2.10;;;;;;;;;;4982784;28;20054;-78
2022/10/03 11:57:06;;;;;;;4.75;1.60;;;;;;;;;;4982751;28;20047;-77
2022/10/03 11:59:32;;;;;;;5.20;1.52;;;;;;;;;;4982333;28;20039;-77
2022/10/03 12:02:10;;;;;;;7.75;2.42;;;;;;;;;;4981650;28;20501;-77
2022/10/03 12:04:39;;;;;;;3.35;1.60;;;;;;;;;;4981441;28;20053;-77
2022/10/03 12:10:26;;;;;;;6.20;2.13;;;;;;;;;;4970592;28;20048;-77
2022/10/03 12:12:54;;;;;;;6.68;1.90;;;;;;;;;;4970366;28;20050;-77
2022/10/03 12:15:28;;;;;;;5.90;2.00;;;;;;;;;;4982780;28;20494;-77
2022/10/03 12:18:10;;;;;;;7.65;1.90;;;;;;;;;;4980490;28;20062;-78
2022/10/03 12:20:57;;;;;;;5.50;1.85;;;;;;;;;;4962728;28;20047;-77
2022/10/03 12:23:52;;;;;;;5.85;2.20;;;;;;;;;;4943549;28;20063;-77
2022/10/03 12:26:30;;;;;;;6.65;2.20;;;;;;;;;;4984269;28;20055;-77
2022/10/03 12:28:57;;;;;;;14.38;2.17;;;;;;;;;;4963967;28;20387;-77
2022/10/03 12:31:34;;;;;;;5.03;1.52;;;;;;;;;;4963028;28;20039;-77
2022/10/03 12:34:19;;;;;;;5.60;1.80;;;;;;;;;;4963703;28;20124;-77
2022/10/03 12:36:52;;;;;;;8.32;2.50;;;;;;;;;;4964321;28;20051;-77
2022/10/03 12:39:36;;;;;;;6.43;2.35;;;;;;;;;;4964418;28;20039;-77
2022/10/03 12:42:05;;;;;;;5.18;1.80;;;;;;;;;;4965281;28;20043;-78
2022/10/03 12:44:40;;;;;;;5.07;1.70;;;;;;;;;;4971540;28;20039;-76
2022/10/03 12:47:18;;;;;;;5.63;1.70;;;;;;;;;;4988669;28;20050;-77
2022/10/03 12:50:03;;;;;;;5.85;1.55;;;;;;;;;;4994506;28;20078;-77
2022/10/03 12:52:32;;;;;;;5.40;1.92;;;;;;;;;;4967624;29;20078;-77
2022/10/03 12:55:27;;;;;;;6.43;1.90;;;;;;;;;;4967780;28;20414;-77
2022/10/03 12:58:00;;;;;;;6.13;1.90;;;;;;;;;;5001869;28;20042;-76
2022/10/03 13:00:42;;;;;;;5.43;2.15;;;;;;;;;;4991202;28;20051;-76
2022/10/03 13:03:17;;;;;;;4.18;1.70;;;;;;;;;;4988787;28;20401;-76
2022/10/03 13:05:43;;;;;;;;;;;;;;;;;;4994405;28;20050;-77
2022/10/03 13:08:22;;;;;;;4.32;1.83;;;;;;;;;;4995135;28;19943;-76
2022/10/03 13:10:49;;;;;;;5.80;1.98;;;;;;;;;;4975673;28;20047;-77
2022/10/03 13:13:32;;;;;;;4.95;1.80;;;;;;;;;;5020864;28;20047;-77
2022/10/03 13:16:02;;;;;;;5.38;2.20;;;;;;;;;;5091625;28;20079;-76
2022/10/03 13:18:34;;;;;;;4.78;2.20;;;;;;;;;;5000722;28;20051;-76
2022/10/03 13:21:01;;;;;;;6.75;1.90;;;;;;;;;;4971847;28;20050;-76
2022/10/03 13:23:37;;;;;;;6.57;2.65;;;;;;;;;;4979864;28;20061;-76
2022/10/03 13:26:03;;;;;;;6.50;1.85;;;;;;;;;;4975202;28;20057;-77
2022/10/03 13:28:31;;;;;;;6.72;2.42;;;;;;;;;;4975010;28;20115;-77
2022/10/03 13:31:23;;;;;;;9.50;1.92;;;;;;;;;;4954547;28;20047;-77
2022/10/03 13:33:54;;;;;;;5.05;2.15;;;;;;;;;;4984439;28;20062;-76
2022/10/03 13:36:23;;;;;;;6.57;1.95;;;;;;;;;;4979738;28;20079;-76
2022/10/03 13:38:54;;;;;;;6.22;1.95;;;;;;;;;;4971953;28;20407;-77
2022/10/03 13:41:29;;;;;;;5.05;1.83;;;;;;;;;;4972935;28;20237;-77
2022/10/03 13:43:58;;;;;;;8.70;2.40;;;;;;;;;;4971902;28;20055;-76
2022/10/03 13:46:45;;;;;;;4.65;1.80;;;;;;;;;;4976847;28;20043;-77
2022/10/03 13:49:17;;;;;;;5.78;1.83;;;;;;;;;;4983545;28;20059;-77
2022/10/03 13:51:51;;;;;;;4.93;2.10;;;;;;;;;;4971702;28;20077;-77
2022/10/03 13:54:28;;;;;;;5.78;2.65;;;;;;;;;;4970770;28;20099;-77
2022/10/03 13:56:56;;;;;;;9.02;1.92;;;;;;;;;;4978015;28;20051;-77
2022/10/03 13:59:35;;;;;;;5.82;2.10;;;;;;;;;;4971299;28;20054;-77
2022/10/03 14:02:04;;;;;;;6.57;2.00;;;;;;;;;;4971827;29;20051;-77
2022/10/03 14:04:31;;;;;;;6.60;2.00;;;;;;;;;;4971462;28;20047;-76
2022/10/03 14:07:09;;;;;;;4.78;1.95;;;;;;;;;;4970394;28;20056;-77
2022/10/03 14:09:56;;;;;;;6.63;1.90;;;;;;;;;;4972188;28;20031;-77
2022/10/03 14:12:28;;;;;;;5.00;2.00;;;;;;;;;;4971925;28;20031;-76
2022/10/03 14:14:57;;;;;;;4.80;1.90;;;;;;;;;;4971428;28;20043;-77
2022/10/03 14:17:23;;;;;;;6.43;1.90;;;;;;;;;;4974235;28;20047;-76
2022/10/03 14:20:08;;;;;;;8.55;1.85;;;;;;;;;;4969238;28;20057;-76
2022/10/03 14:22:37;;;;;;;7.00;2.03;;;;;;;;;;4970764;28;20075;-76
2022/10/03 14:25:09;;;;;;;4.30;2.03;;;;;;;;;;4973615;28;20073;-79
2022/10/03 14:27:59;;;;;;;5.60;1.80;;;;;;;;;;4985550;28;20113;-76
2022/10/03 14:30:32;;;;;;;8.15;2.20;;;;;;;;;;4972233;28;20049;-76
2022/10/03 14:33:05;;;;;;;6.03;1.95;;;;;;;;;;4982392;28;20047;-76
2022/10/03 14:35:36;;;;;;;5.03;2.22;;;;;;;;;;4990114;28;20051;-80
2022/10/03 14:38:08;;;;;;;6.45;1.95;;;;;;;;;;4968970;28;20108;-77
2022/10/03 14:40:37;;;;;;;6.80;1.98;;;;;;;;;;4966975;28;20058;-77
2022/10/03 14:43:19;;;;;;;4.93;1.85;;;;;;;;;;4981041;28;20039;-77
2022/10/03 14:45:50;;;;;;;4.60;2.13;;;;;;;;;;4964656;28;20530;-76
2022/10/03 14:48:20;;;;;;;7.22;2.63;;;;;;;;;;4983095;28;20047;-77
2022/10/03 14:50:49;;;;;;;5.45;2.03;;;;;;;;;;4973023;28;20052;-77
2022/10/03 14:53:22;;;;;;;8.70;2.00;;;;;;;;;;4964394;29;20080;-77
2022/10/03 14:55:51;;;;;;;7.50;2.40;;;;;;;;;;4965047;28;20090;-76
2022/10/03 14:58:20;;;;;;;4.93;2.10;;;;;;;;;;4970950;28;20035;-76
2022/10/03 15:01:06;;;;;;;4.85;1.60;;;;;;;;;;4970618;28;20082;-78
2022/10/03 15:03:38;;;;;;;4.30;1.98;;;;;;;;;;4963516;28;20414;-78
2022/10/03 15:06:10;;;;;;;6.45;1.70;;;;;;;;;;4973454;28;20094;-78
2022/10/03 15:08:37;;;;;;;5.70;2.05;;;;;;;;;;4985550;28;20043;-77
2022/10/03 15:11:05;;;;;;;5.25;1.95;;;;;;;;;;4984282;28;20050;-77
2022/10/03 15:13:34;;;;;;;5.90;2.00;;;;;;;;;;4961638;28;20110;-75
2022/10/03 15:16:01;;;;;;;4.68;1.85;;;;;;;;;;4976433;28;20383;-79
2022/10/03 15:18:28;;;;;;;4.82;2.00;;;;;;;;;;4978158;28;20061;-76
2022/10/03 15:20:56;;;;;;;5.13;2.28;;;;;;;;;;4983516;28;20058;-77
2022/10/03 15:23:27;;;;;;;5.28;2.00;;;;;;;;;;4981327;28;20045;-77
2022/10/03 15:25:54;;;;;;;6.47;2.13;;;;;;;;;;5025131;28;20511;-77
2022/10/03 15:28:23;;;;;;;7.40;2.10;;;;;;;;;;5049349;28;20054;-76
2022/10/03 15:30:51;;;;;;;6.30;2.08;;;;;;;;;;5011599;28;20051;-77
2022/10/03 15:33:22;;;;;;;6.38;2.50;;;;;;;;;;4967112;28;20047;-80
2022/10/03 15:35:51;;;;;;;4.47;2.25;;;;;;;;;;4966629;29;20070;-77
2022/10/03 15:38:26;;;;;;;5.72;1.90;;;;;;;;;;4966043;28;20051;-76
2022/10/03 15:41:08;;;;;;;5.90;2.17;;;;;;;;;;4966091;29;20063;-77
2022/10/03 15:43:55;;;;;;;8.75;2.40;;;;;;;;;;4971666;28;20042;-77
2022/10/03 15:46:33;;;;;;;8.90;2.20;;;;;;;;;;4977139;28;20051;-77
2022/10/03 15:49:18;;;;;;;6.88;2.30;;;;;;;;;;4967527;28;20055;-77